sensor_id;sensor_type;location;lat;lon;timestamp;P1;durP1;ratioP1;P2;durP2;ratioP2
1545;SDS011;766;51.502;9.752;2023-04-25T00:01:37;14.95;;;4.63;;
1545;SDS011;766;51.502;9.752;2023-04-25T00:04:05;9.73;;;5.07;;
1545;SDS011;766;51.502;9.752;2023-04-25T00:06:35;11.68;;;4.75;;
1545;SDS011;766;51.502;9.752;2023-04-25T00:09:04;15.07;;;5.10;;
1545;SDS011;766;51.502;9.752;2023-04-25T00:11:36;10.27;;;4.82;;
1545;SDS011;766;51.502;9.752;2023-04-25T00:14:05;14.38;;;5.40;;
1545;SDS011;766;51.502;9.752;2023-04-25T00:16:33;14.45;;;5.35;;
1545;SDS011;766;51.502;9.752;2023-04-25T00:19:02;10.40;;;4.93;;
1545;SDS011;766;51.502;9.752;2023-04-25T00:21:30;13.82;;;5.35;;
1545;SDS011;766;51.502;9.752;2023-04-25T00:23:59;11.05;;;5.57;;
1545;SDS011;766;51.502;9.752;2023-04-25T00:26:27;10.93;;;5.68;;
1545;SDS011;766;51.502;9.752;2023-04-25T00:28:57;15.95;;;6.53;;
1545;SDS011;766;51.502;9.752;2023-04-25T00:31:26;10.15;;;5.97;;
1545;SDS011;766;51.502;9.752;2023-04-25T00:33:55;11.00;;;5.72;;
1545;SDS011;766;51.502;9.752;2023-04-25T00:36:24;9.32;;;6.07;;
1545;SDS011;766;51.502;9.752;2023-04-25T00:38:54;11.40;;;6.15;;
1545;SDS011;766;51.502;9.752;2023-04-25T00:41:22;12.18;;;6.68;;
1545;SDS011;766;51.502;9.752;2023-04-25T00:43:51;14.80;;;7.28;;
1545;SDS011;766;51.502;9.752;2023-04-25T00:46:22;9.25;;;5.72;;
1545;SDS011;766;51.502;9.752;2023-04-25T00:48:51;13.02;;;6.45;;
1545;SDS011;766;51.502;9.752;2023-04-25T00:51:20;13.00;;;6.05;;
1545;SDS011;766;51.502;9.752;2023-04-25T00:53:49;14.35;;;7.30;;
1545;SDS011;766;51.502;9.752;2023-04-25T00:56:18;19.00;;;7.55;;
1545;SDS011;766;51.502;9.752;2023-04-25T00:58:47;17.58;;;7.57;;
1545;SDS011;766;51.502;9.752;2023-04-25T01:01:17;19.17;;;8.13;;
1545;SDS011;766;51.502;9.752;2023-04-25T01:03:51;15.32;;;8.02;;
1545;SDS011;766;51.502;9.752;2023-04-25T01:06:22;18.90;;;7.93;;
1545;SDS011;766;51.502;9.752;2023-04-25T01:08:51;25.48;;;7.80;;
1545;SDS011;766;51.502;9.752;2023-04-25T01:11:19;14.02;;;7.50;;
1545;SDS011;766;51.502;9.752;2023-04-25T01:13:48;12.27;;;7.60;;
1545;SDS011;766;51.502;9.752;2023-04-25T01:16:17;12.95;;;7.47;;
1545;SDS011;766;51.502;9.752;2023-04-25T01:18:51;14.65;;;7.70;;
1545;SDS011;766;51.502;9.752;2023-04-25T01:21:21;14.43;;;7.07;;
1545;SDS011;766;51.502;9.752;2023-04-25T01:23:52;15.35;;;8.02;;
1545;SDS011;766;51.502;9.752;2023-04-25T01:26:22;18.92;;;8.43;;
1545;SDS011;766;51.502;9.752;2023-04-25T01:28:50;17.80;;;7.80;;
1545;SDS011;766;51.502;9.752;2023-04-25T01:31:23;18.10;;;6.93;;
1545;SDS011;766;51.502;9.752;2023-04-25T01:33:51;20.33;;;7.55;;
1545;SDS011;766;51.502;9.752;2023-04-25T01:36:22;15.45;;;7.35;;
1545;SDS011;766;51.502;9.752;2023-04-25T01:38:51;16.42;;;6.75;;
1545;SDS011;766;51.502;9.752;2023-04-25T01:41:20;21.80;;;7.85;;
1545;SDS011;766;51.502;9.752;2023-04-25T01:43:49;16.35;;;6.85;;
1545;SDS011;766;51.502;9.752;2023-04-25T01:46:18;16.98;;;7.10;;
1545;SDS011;766;51.502;9.752;2023-04-25T01:48:47;21.20;;;7.25;;
1545;SDS011;766;51.502;9.752;2023-04-25T01:51:18;17.23;;;7.45;;
1545;SDS011;766;51.502;9.752;2023-04-25T01:53:48;16.77;;;7.65;;
1545;SDS011;766;51.502;9.752;2023-04-25T01:56:17;16.77;;;8.32;;
1545;SDS011;766;51.502;9.752;2023-04-25T01:58:48;18.30;;;7.63;;
1545;SDS011;766;51.502;9.752;2023-04-25T02:01:18;19.77;;;8.98;;
1545;SDS011;766;51.502;9.752;2023-04-25T02:03:47;16.95;;;9.10;;
1545;SDS011;766;51.502;9.752;2023-04-25T02:06:18;19.70;;;8.10;;
1545;SDS011;766;51.502;9.752;2023-04-25T02:08:46;19.80;;;7.68;;
1545;SDS011;766;51.502;9.752;2023-04-25T02:11:16;24.63;;;9.02;;
1545;SDS011;766;51.502;9.752;2023-04-25T02:13:44;19.98;;;8.82;;
1545;SDS011;766;51.502;9.752;2023-04-25T02:16:13;17.10;;;7.97;;
1545;SDS011;766;51.502;9.752;2023-04-25T02:18:41;16.15;;;8.60;;
1545;SDS011;766;51.502;9.752;2023-04-25T02:21:11;18.38;;;8.07;;
1545;SDS011;766;51.502;9.752;2023-04-25T02:23:39;18.02;;;8.05;;
1545;SDS011;766;51.502;9.752;2023-04-25T02:26:08;18.92;;;7.97;;
1545;SDS011;766;51.502;9.752;2023-04-25T02:28:39;21.40;;;7.35;;
1545;SDS011;766;51.502;9.752;2023-04-25T02:31:07;19.67;;;8.25;;
1545;SDS011;766;51.502;9.752;2023-04-25T02:33:35;20.60;;;7.97;;
1545;SDS011;766;51.502;9.752;2023-04-25T02:36:04;17.00;;;6.95;;
1545;SDS011;766;51.502;9.752;2023-04-25T02:38:33;17.05;;;7.35;;
1545;SDS011;766;51.502;9.752;2023-04-25T02:41:02;12.90;;;7.07;;
1545;SDS011;766;51.502;9.752;2023-04-25T02:43:30;11.70;;;6.60;;
1545;SDS011;766;51.502;9.752;2023-04-25T02:45:59;20.85;;;7.20;;
1545;SDS011;766;51.502;9.752;2023-04-25T02:48:28;17.40;;;7.28;;
1545;SDS011;766;51.502;9.752;2023-04-25T02:50:56;19.83;;;7.80;;
1545;SDS011;766;51.502;9.752;2023-04-25T02:53:25;15.95;;;7.32;;
1545;SDS011;766;51.502;9.752;2023-04-25T02:55:54;14.90;;;7.70;;
1545;SDS011;766;51.502;9.752;2023-04-25T02:58:24;19.55;;;6.70;;
1545;SDS011;766;51.502;9.752;2023-04-25T03:00:53;20.98;;;7.45;;
1545;SDS011;766;51.502;9.752;2023-04-25T03:03:23;20.75;;;7.70;;
1545;SDS011;766;51.502;9.752;2023-04-25T03:05:52;15.40;;;7.60;;
1545;SDS011;766;51.502;9.752;2023-04-25T03:08:20;13.57;;;6.40;;
1545;SDS011;766;51.502;9.752;2023-04-25T03:10:49;17.00;;;6.63;;
1545;SDS011;766;51.502;9.752;2023-04-25T03:13:18;17.67;;;6.95;;
1545;SDS011;766;51.502;9.752;2023-04-25T03:15:47;19.15;;;6.90;;
1545;SDS011;766;51.502;9.752;2023-04-25T03:18:15;16.27;;;6.28;;
1545;SDS011;766;51.502;9.752;2023-04-25T03:20:45;18.80;;;6.97;;
1545;SDS011;766;51.502;9.752;2023-04-25T03:23:14;15.40;;;6.18;;
1545;SDS011;766;51.502;9.752;2023-04-25T03:25:42;13.82;;;6.43;;
1545;SDS011;766;51.502;9.752;2023-04-25T03:28:10;18.13;;;7.03;;
1545;SDS011;766;51.502;9.752;2023-04-25T03:30:42;20.10;;;6.80;;
1545;SDS011;766;51.502;9.752;2023-04-25T03:33:10;14.00;;;7.10;;
1545;SDS011;766;51.502;9.752;2023-04-25T03:35:38;18.05;;;6.93;;
1545;SDS011;766;51.502;9.752;2023-04-25T03:38:08;18.90;;;6.88;;
1545;SDS011;766;51.502;9.752;2023-04-25T03:40:37;18.67;;;6.10;;
1545;SDS011;766;51.502;9.752;2023-04-25T03:43:05;13.43;;;7.05;;
1545;SDS011;766;51.502;9.752;2023-04-25T03:45:33;13.85;;;6.32;;
1545;SDS011;766;51.502;9.752;2023-04-25T03:48:02;13.20;;;7.07;;
1545;SDS011;766;51.502;9.752;2023-04-25T03:50:31;16.38;;;7.50;;
1545;SDS011;766;51.502;9.752;2023-04-25T03:52:59;16.90;;;7.03;;
1545;SDS011;766;51.502;9.752;2023-04-25T03:55:29;18.55;;;6.93;;
1545;SDS011;766;51.502;9.752;2023-04-25T03:57:58;22.50;;;7.80;;
1545;SDS011;766;51.502;9.752;2023-04-25T04:00:26;15.82;;;7.32;;
1545;SDS011;766;51.502;9.752;2023-04-25T04:02:54;16.40;;;6.93;;
1545;SDS011;766;51.502;9.752;2023-04-25T04:05:23;12.85;;;6.70;;
1545;SDS011;766;51.502;9.752;2023-04-25T04:07:52;16.75;;;7.55;;
1545;SDS011;766;51.502;9.752;2023-04-25T04:10:20;16.23;;;7.18;;
1545;SDS011;766;51.502;9.752;2023-04-25T04:12:50;16.15;;;7.78;;
1545;SDS011;766;51.502;9.752;2023-04-25T04:15:19;18.92;;;7.85;;
1545;SDS011;766;51.502;9.752;2023-04-25T04:17:47;20.80;;;7.78;;
1545;SDS011;766;51.502;9.752;2023-04-25T04:20:16;17.10;;;7.40;;
1545;SDS011;766;51.502;9.752;2023-04-25T04:22:44;16.05;;;7.55;;
1545;SDS011;766;51.502;9.752;2023-04-25T04:25:12;18.92;;;7.63;;
1545;SDS011;766;51.502;9.752;2023-04-25T04:27:41;14.02;;;7.53;;
1545;SDS011;766;51.502;9.752;2023-04-25T04:30:12;16.98;;;7.75;;
1545;SDS011;766;51.502;9.752;2023-04-25T04:32:41;18.63;;;7.45;;
1545;SDS011;766;51.502;9.752;2023-04-25T04:35:12;17.13;;;8.25;;
1545;SDS011;766;51.502;9.752;2023-04-25T04:38:03;15.50;;;7.80;;
1545;SDS011;766;51.502;9.752;2023-04-25T04:40:33;13.05;;;8.02;;
1545;SDS011;766;51.502;9.752;2023-04-25T04:43:04;13.65;;;8.10;;
1545;SDS011;766;51.502;9.752;2023-04-25T04:45:37;11.07;;;7.88;;
1545;SDS011;766;51.502;9.752;2023-04-25T04:48:07;15.05;;;8.57;;
1545;SDS011;766;51.502;9.752;2023-04-25T04:50:42;14.77;;;7.55;;
1545;SDS011;766;51.502;9.752;2023-04-25T04:53:27;16.42;;;8.10;;
1545;SDS011;766;51.502;9.752;2023-04-25T04:56:00;20.30;;;7.38;;
1545;SDS011;766;51.502;9.752;2023-04-25T04:58:33;14.73;;;6.82;;
1545;SDS011;766;51.502;9.752;2023-04-25T05:01:09;10.70;;;6.60;;
1545;SDS011;766;51.502;9.752;2023-04-25T05:03:38;13.38;;;6.88;;
1545;SDS011;766;51.502;9.752;2023-04-25T05:06:08;14.10;;;7.80;;
1545;SDS011;766;51.502;9.752;2023-04-25T05:08:38;16.75;;;6.65;;
1545;SDS011;766;51.502;9.752;2023-04-25T05:11:13;14.02;;;6.47;;
1545;SDS011;766;51.502;9.752;2023-04-25T05:13:51;12.23;;;6.55;;
1545;SDS011;766;51.502;9.752;2023-04-25T05:16:21;9.48;;;6.43;;
1545;SDS011;766;51.502;9.752;2023-04-25T05:18:50;9.07;;;6.45;;
1545;SDS011;766;51.502;9.752;2023-04-25T05:21:18;9.23;;;5.88;;
1545;SDS011;766;51.502;9.752;2023-04-25T05:23:47;10.77;;;5.55;;
1545;SDS011;766;51.502;9.752;2023-04-25T05:26:16;7.15;;;5.10;;
1545;SDS011;766;51.502;9.752;2023-04-25T05:28:44;8.68;;;5.45;;
1545;SDS011;766;51.502;9.752;2023-04-25T05:31:13;6.85;;;4.43;;
1545;SDS011;766;51.502;9.752;2023-04-25T05:33:43;7.60;;;4.78;;
1545;SDS011;766;51.502;9.752;2023-04-25T05:36:11;9.48;;;5.40;;
1545;SDS011;766;51.502;9.752;2023-04-25T05:38:39;6.10;;;4.55;;
1545;SDS011;766;51.502;9.752;2023-04-25T05:41:08;8.25;;;4.65;;
1545;SDS011;766;51.502;9.752;2023-04-25T05:43:37;7.25;;;4.40;;
1545;SDS011;766;51.502;9.752;2023-04-25T05:46:05;7.03;;;3.67;;
1545;SDS011;766;51.502;9.752;2023-04-25T05:48:34;8.68;;;4.13;;
1545;SDS011;766;51.502;9.752;2023-04-25T05:51:04;7.10;;;3.88;;
1545;SDS011;766;51.502;9.752;2023-04-25T05:53:32;6.72;;;3.47;;
1545;SDS011;766;51.502;9.752;2023-04-25T05:56:00;8.18;;;3.15;;
1545;SDS011;766;51.502;9.752;2023-04-25T05:58:29;10.77;;;3.55;;
1545;SDS011;766;51.502;9.752;2023-04-25T06:00:57;8.43;;;3.70;;
1545;SDS011;766;51.502;9.752;2023-04-25T06:03:26;10.35;;;4.47;;
1545;SDS011;766;51.502;9.752;2023-04-25T06:05:54;8.50;;;4.00;;
1545;SDS011;766;51.502;9.752;2023-04-25T06:08:24;8.85;;;4.13;;
1545;SDS011;766;51.502;9.752;2023-04-25T06:10:53;12.73;;;3.63;;
1545;SDS011;766;51.502;9.752;2023-04-25T06:13:21;7.43;;;4.38;;
1545;SDS011;766;51.502;9.752;2023-04-25T06:15:49;10.98;;;3.83;;
1545;SDS011;766;51.502;9.752;2023-04-25T06:18:17;15.38;;;4.38;;
1545;SDS011;766;51.502;9.752;2023-04-25T06:20:47;10.52;;;3.38;;
1545;SDS011;766;51.502;9.752;2023-04-25T06:23:16;11.90;;;3.33;;
1545;SDS011;766;51.502;9.752;2023-04-25T06:25:46;10.50;;;3.35;;
1545;SDS011;766;51.502;9.752;2023-04-25T06:28:14;11.68;;;4.60;;
1545;SDS011;766;51.502;9.752;2023-04-25T06:30:43;7.65;;;3.65;;
1545;SDS011;766;51.502;9.752;2023-04-25T06:33:12;7.90;;;3.50;;
1545;SDS011;766;51.502;9.752;2023-04-25T06:35:40;8.13;;;3.50;;
1545;SDS011;766;51.502;9.752;2023-04-25T06:38:09;10.60;;;3.67;;
1545;SDS011;766;51.502;9.752;2023-04-25T06:40:37;18.60;;;4.18;;
1545;SDS011;766;51.502;9.752;2023-04-25T06:43:07;11.75;;;3.88;;
1545;SDS011;766;51.502;9.752;2023-04-25T06:45:36;11.85;;;3.20;;
1545;SDS011;766;51.502;9.752;2023-04-25T06:48:04;11.02;;;3.47;;
1545;SDS011;766;51.502;9.752;2023-04-25T06:50:33;16.52;;;3.40;;
1545;SDS011;766;51.502;9.752;2023-04-25T06:53:01;14.52;;;3.45;;
1545;SDS011;766;51.502;9.752;2023-04-25T06:55:30;7.65;;;2.95;;
1545;SDS011;766;51.502;9.752;2023-04-25T06:58:11;10.85;;;3.08;;
1545;SDS011;766;51.502;9.752;2023-04-25T07:00:39;13.13;;;3.33;;
1545;SDS011;766;51.502;9.752;2023-04-25T07:03:08;15.40;;;4.30;;
1545;SDS011;766;51.502;9.752;2023-04-25T07:05:37;15.80;;;4.00;;
1545;SDS011;766;51.502;9.752;2023-04-25T07:08:06;9.10;;;3.13;;
1545;SDS011;766;51.502;9.752;2023-04-25T07:10:34;15.05;;;4.57;;
1545;SDS011;766;51.502;9.752;2023-04-25T07:13:03;14.95;;;3.28;;
1545;SDS011;766;51.502;9.752;2023-04-25T07:15:33;10.35;;;3.75;;
1545;SDS011;766;51.502;9.752;2023-04-25T07:18:02;12.30;;;3.97;;
1545;SDS011;766;51.502;9.752;2023-04-25T07:20:30;19.65;;;3.95;;
1545;SDS011;766;51.502;9.752;2023-04-25T07:22:59;15.10;;;3.25;;
1545;SDS011;766;51.502;9.752;2023-04-25T07:25:28;10.75;;;2.88;;
1545;SDS011;766;51.502;9.752;2023-04-25T07:27:57;9.77;;;2.65;;
1545;SDS011;766;51.502;9.752;2023-04-25T07:30:25;12.45;;;3.58;;
1545;SDS011;766;51.502;9.752;2023-04-25T07:32:55;9.13;;;2.30;;
1545;SDS011;766;51.502;9.752;2023-04-25T07:35:26;12.18;;;3.05;;
1545;SDS011;766;51.502;9.752;2023-04-25T07:37:54;16.05;;;3.50;;
1545;SDS011;766;51.502;9.752;2023-04-25T07:40:22;10.15;;;2.58;;
1545;SDS011;766;51.502;9.752;2023-04-25T07:42:51;13.90;;;3.50;;
1545;SDS011;766;51.502;9.752;2023-04-25T07:45:19;15.38;;;3.60;;
1545;SDS011;766;51.502;9.752;2023-04-25T07:47:48;11.13;;;3.38;;
1545;SDS011;766;51.502;9.752;2023-04-25T07:50:18;12.73;;;3.22;;
1545;SDS011;766;51.502;9.752;2023-04-25T07:52:46;18.63;;;3.30;;
1545;SDS011;766;51.502;9.752;2023-04-25T07:55:15;10.98;;;3.30;;
1545;SDS011;766;51.502;9.752;2023-04-25T07:57:44;16.67;;;3.40;;
1545;SDS011;766;51.502;9.752;2023-04-25T08:00:14;16.63;;;3.50;;
1545;SDS011;766;51.502;9.752;2023-04-25T08:02:43;11.68;;;3.33;;
1545;SDS011;766;51.502;9.752;2023-04-25T08:05:12;13.57;;;3.10;;
1545;SDS011;766;51.502;9.752;2023-04-25T08:07:44;14.68;;;3.10;;
1545;SDS011;766;51.502;9.752;2023-04-25T08:10:13;17.27;;;3.03;;
1545;SDS011;766;51.502;9.752;2023-04-25T08:12:41;14.48;;;3.05;;
1545;SDS011;766;51.502;9.752;2023-04-25T08:15:10;11.90;;;3.55;;
1545;SDS011;766;51.502;9.752;2023-04-25T08:17:42;11.02;;;3.00;;
1545;SDS011;766;51.502;9.752;2023-04-25T08:20:12;9.07;;;2.65;;
1545;SDS011;766;51.502;9.752;2023-04-25T08:22:40;8.90;;;3.35;;
1545;SDS011;766;51.502;9.752;2023-04-25T08:25:10;16.60;;;3.72;;
1545;SDS011;766;51.502;9.752;2023-04-25T08:27:38;11.20;;;2.92;;
1545;SDS011;766;51.502;9.752;2023-04-25T08:30:07;14.05;;;3.08;;
1545;SDS011;766;51.502;9.752;2023-04-25T08:32:38;11.35;;;3.67;;
1545;SDS011;766;51.502;9.752;2023-04-25T08:35:13;9.60;;;3.15;;
1545;SDS011;766;51.502;9.752;2023-04-25T08:37:43;17.70;;;4.13;;
1545;SDS011;766;51.502;9.752;2023-04-25T08:40:13;11.25;;;2.90;;
1545;SDS011;766;51.502;9.752;2023-04-25T08:42:43;12.63;;;2.83;;
1545;SDS011;766;51.502;9.752;2023-04-25T08:45:11;14.50;;;3.15;;
1545;SDS011;766;51.502;9.752;2023-04-25T08:47:40;14.60;;;3.78;;
1545;SDS011;766;51.502;9.752;2023-04-25T08:50:11;9.50;;;2.33;;
1545;SDS011;766;51.502;9.752;2023-04-25T08:52:43;15.52;;;3.03;;
1545;SDS011;766;51.502;9.752;2023-04-25T08:55:17;14.65;;;2.90;;
1545;SDS011;766;51.502;9.752;2023-04-25T08:57:46;15.02;;;3.38;;
1545;SDS011;766;51.502;9.752;2023-04-25T09:00:15;11.27;;;3.03;;
1545;SDS011;766;51.502;9.752;2023-04-25T09:02:44;14.88;;;3.42;;
1545;SDS011;766;51.502;9.752;2023-04-25T09:05:15;12.48;;;2.80;;
1545;SDS011;766;51.502;9.752;2023-04-25T09:08:03;8.07;;;2.42;;
1545;SDS011;766;51.502;9.752;2023-04-25T09:10:33;7.35;;;3.05;;
1545;SDS011;766;51.502;9.752;2023-04-25T09:13:03;12.45;;;2.72;;
1545;SDS011;766;51.502;9.752;2023-04-25T09:15:32;17.75;;;3.80;;
1545;SDS011;766;51.502;9.752;2023-04-25T09:18:04;16.45;;;3.20;;
1545;SDS011;766;51.502;9.752;2023-04-25T09:20:35;13.82;;;3.05;;
1545;SDS011;766;51.502;9.752;2023-04-25T09:23:26;9.88;;;2.55;;
1545;SDS011;766;51.502;9.752;2023-04-25T09:25:56;17.10;;;3.28;;
1545;SDS011;766;51.502;9.752;2023-04-25T09:28:27;11.73;;;2.72;;
1545;SDS011;766;51.502;9.752;2023-04-25T09:30:57;11.63;;;2.83;;
1545;SDS011;766;51.502;9.752;2023-04-25T09:33:29;9.02;;;3.00;;
1545;SDS011;766;51.502;9.752;2023-04-25T09:36:01;15.52;;;3.20;;
1545;SDS011;766;51.502;9.752;2023-04-25T09:38:32;11.52;;;3.03;;
1545;SDS011;766;51.502;9.752;2023-04-25T09:41:08;10.43;;;3.03;;
1545;SDS011;766;51.502;9.752;2023-04-25T09:43:38;9.27;;;2.63;;
1545;SDS011;766;51.502;9.752;2023-04-25T09:46:07;12.18;;;2.40;;
1545;SDS011;766;51.502;9.752;2023-04-25T09:48:37;8.93;;;2.63;;
1545;SDS011;766;51.502;9.752;2023-04-25T09:51:10;11.35;;;2.72;;
1545;SDS011;766;51.502;9.752;2023-04-25T09:53:40;18.33;;;3.15;;
1545;SDS011;766;51.502;9.752;2023-04-25T09:56:14;13.88;;;2.55;;
1545;SDS011;766;51.502;9.752;2023-04-25T09:58:42;13.73;;;2.42;;
1545;SDS011;766;51.502;9.752;2023-04-25T10:01:11;11.70;;;2.60;;
1545;SDS011;766;51.502;9.752;2023-04-25T10:03:41;8.20;;;2.25;;
1545;SDS011;766;51.502;9.752;2023-04-25T10:06:11;18.08;;;2.95;;
1545;SDS011;766;51.502;9.752;2023-04-25T10:08:42;10.70;;;2.70;;
1545;SDS011;766;51.502;9.752;2023-04-25T10:11:13;10.40;;;2.97;;
1545;SDS011;766;51.502;9.752;2023-04-25T10:13:43;11.88;;;2.90;;
1545;SDS011;766;51.502;9.752;2023-04-25T10:16:14;12.43;;;2.60;;
1545;SDS011;766;51.502;9.752;2023-04-25T10:18:44;12.07;;;3.03;;
1545;SDS011;766;51.502;9.752;2023-04-25T10:21:12;9.57;;;2.20;;
1545;SDS011;766;51.502;9.752;2023-04-25T10:23:45;10.95;;;2.53;;
1545;SDS011;766;51.502;9.752;2023-04-25T10:26:16;9.85;;;3.10;;
1545;SDS011;766;51.502;9.752;2023-04-25T10:28:55;12.05;;;3.17;;
1545;SDS011;766;51.502;9.752;2023-04-25T10:31:24;9.70;;;2.38;;
1545;SDS011;766;51.502;9.752;2023-04-25T10:33:53;9.85;;;3.17;;
1545;SDS011;766;51.502;9.752;2023-04-25T10:36:22;13.65;;;2.45;;
1545;SDS011;766;51.502;9.752;2023-04-25T10:38:51;7.22;;;1.75;;
1545;SDS011;766;51.502;9.752;2023-04-25T10:41:22;10.27;;;2.00;;
1545;SDS011;766;51.502;9.752;2023-04-25T10:43:50;10.15;;;2.60;;
1545;SDS011;766;51.502;9.752;2023-04-25T10:46:28;9.10;;;2.20;;
1545;SDS011;766;51.502;9.752;2023-04-25T10:48:58;12.98;;;2.13;;
1545;SDS011;766;51.502;9.752;2023-04-25T10:51:31;7.60;;;1.95;;
1545;SDS011;766;51.502;9.752;2023-04-25T10:54:21;8.82;;;1.88;;
1545;SDS011;766;51.502;9.752;2023-04-25T10:56:53;9.90;;;2.03;;
1545;SDS011;766;51.502;9.752;2023-04-25T10:59:22;7.10;;;1.50;;
1545;SDS011;766;51.502;9.752;2023-04-25T11:01:53;5.00;;;1.70;;
1545;SDS011;766;51.502;9.752;2023-04-25T11:04:23;7.35;;;1.88;;
1545;SDS011;766;51.502;9.752;2023-04-25T11:07:02;6.43;;;1.67;;
1545;SDS011;766;51.502;9.752;2023-04-25T11:09:38;8.30;;;1.80;;
1545;SDS011;766;51.502;9.752;2023-04-25T11:12:09;9.00;;;1.50;;
1545;SDS011;766;51.502;9.752;2023-04-25T11:14:39;8.13;;;1.73;;
1545;SDS011;766;51.502;9.752;2023-04-25T11:17:07;7.35;;;1.60;;
1545;SDS011;766;51.502;9.752;2023-04-25T11:19:37;11.32;;;1.80;;
1545;SDS011;766;51.502;9.752;2023-04-25T11:22:05;5.18;;;1.70;;
1545;SDS011;766;51.502;9.752;2023-04-25T11:24:34;8.20;;;2.00;;
1545;SDS011;766;51.502;9.752;2023-04-25T11:27:04;8.18;;;2.70;;
1545;SDS011;766;51.502;9.752;2023-04-25T11:29:34;8.90;;;2.22;;
1545;SDS011;766;51.502;9.752;2023-04-25T11:32:03;6.13;;;1.92;;
1545;SDS011;766;51.502;9.752;2023-04-25T11:34:32;4.28;;;1.70;;
1545;SDS011;766;51.502;9.752;2023-04-25T11:37:01;11.15;;;2.08;;
1545;SDS011;766;51.502;9.752;2023-04-25T11:39:30;4.88;;;1.65;;
1545;SDS011;766;51.502;9.752;2023-04-25T11:41:58;5.32;;;1.83;;
1545;SDS011;766;51.502;9.752;2023-04-25T11:44:29;7.38;;;1.90;;
1545;SDS011;766;51.502;9.752;2023-04-25T11:46:59;6.22;;;2.35;;
1545;SDS011;766;51.502;9.752;2023-04-25T11:49:31;4.88;;;1.75;;
1545;SDS011;766;51.502;9.752;2023-04-25T11:51:59;6.68;;;1.50;;
1545;SDS011;766;51.502;9.752;2023-04-25T11:54:28;3.60;;;1.63;;
1545;SDS011;766;51.502;9.752;2023-04-25T11:56:57;9.45;;;1.75;;
1545;SDS011;766;51.502;9.752;2023-04-25T11:59:27;6.70;;;1.92;;
1545;SDS011;766;51.502;9.752;2023-04-25T12:01:55;8.43;;;2.17;;
1545;SDS011;766;51.502;9.752;2023-04-25T12:04:25;4.72;;;1.80;;
1545;SDS011;766;51.502;9.752;2023-04-25T12:06:55;6.30;;;2.00;;
1545;SDS011;766;51.502;9.752;2023-04-25T12:09:27;6.85;;;1.70;;
1545;SDS011;766;51.502;9.752;2023-04-25T12:12:00;5.10;;;2.10;;
1545;SDS011;766;51.502;9.752;2023-04-25T12:14:31;4.05;;;1.52;;
1545;SDS011;766;51.502;9.752;2023-04-25T12:17:06;8.88;;;2.20;;
1545;SDS011;766;51.502;9.752;2023-04-25T12:19:41;4.25;;;1.67;;
1545;SDS011;766;51.502;9.752;2023-04-25T12:22:20;3.97;;;1.48;;
1545;SDS011;766;51.502;9.752;2023-04-25T12:24:50;7.03;;;1.92;;
1545;SDS011;766;51.502;9.752;2023-04-25T12:27:20;7.10;;;1.65;;
1545;SDS011;766;51.502;9.752;2023-04-25T12:29:51;6.88;;;2.00;;
1545;SDS011;766;51.502;9.752;2023-04-25T12:32:20;6.20;;;1.52;;
1545;SDS011;766;51.502;9.752;2023-04-25T12:34:50;5.07;;;1.58;;
1545;SDS011;766;51.502;9.752;2023-04-25T12:37:18;7.07;;;1.63;;
1545;SDS011;766;51.502;9.752;2023-04-25T12:39:47;5.32;;;1.83;;
1545;SDS011;766;51.502;9.752;2023-04-25T12:42:18;4.28;;;1.42;;
1545;SDS011;766;51.502;9.752;2023-04-25T12:45:05;7.38;;;1.80;;
1545;SDS011;766;51.502;9.752;2023-04-25T12:47:34;5.22;;;1.83;;
1545;SDS011;766;51.502;9.752;2023-04-25T12:50:05;8.38;;;1.80;;
1545;SDS011;766;51.502;9.752;2023-04-25T12:52:37;4.90;;;1.70;;
1545;SDS011;766;51.502;9.752;2023-04-25T12:55:06;8.40;;;1.98;;
1545;SDS011;766;51.502;9.752;2023-04-25T12:57:35;4.82;;;2.25;;
1545;SDS011;766;51.502;9.752;2023-04-25T13:00:07;5.95;;;1.50;;
1545;SDS011;766;51.502;9.752;2023-04-25T13:02:37;5.85;;;1.73;;
1545;SDS011;766;51.502;9.752;2023-04-25T13:05:08;6.70;;;1.77;;
1545;SDS011;766;51.502;9.752;2023-04-25T13:07:36;4.03;;;1.40;;
1545;SDS011;766;51.502;9.752;2023-04-25T13:10:06;8.55;;;1.70;;
1545;SDS011;766;51.502;9.752;2023-04-25T13:12:35;6.07;;;1.63;;
1545;SDS011;766;51.502;9.752;2023-04-25T13:15:04;5.28;;;1.75;;
1545;SDS011;766;51.502;9.752;2023-04-25T13:17:36;4.05;;;1.73;;
1545;SDS011;766;51.502;9.752;2023-04-25T13:20:05;5.28;;;1.70;;
1545;SDS011;766;51.502;9.752;2023-04-25T13:22:37;6.70;;;1.30;;
1545;SDS011;766;51.502;9.752;2023-04-25T13:25:08;5.50;;;1.33;;
1545;SDS011;766;51.502;9.752;2023-04-25T13:27:37;4.13;;;1.40;;
1545;SDS011;766;51.502;9.752;2023-04-25T13:30:07;3.35;;;1.42;;
1545;SDS011;766;51.502;9.752;2023-04-25T13:32:36;5.15;;;1.08;;
1545;SDS011;766;51.502;9.752;2023-04-25T13:35:05;4.13;;;1.13;;
1545;SDS011;766;51.502;9.752;2023-04-25T13:37:36;3.25;;;1.30;;
1545;SDS011;766;51.502;9.752;2023-04-25T13:40:06;5.85;;;1.63;;
1545;SDS011;766;51.502;9.752;2023-04-25T13:42:37;2.70;;;1.45;;
1545;SDS011;766;51.502;9.752;2023-04-25T13:45:09;3.60;;;1.30;;
1545;SDS011;766;51.502;9.752;2023-04-25T13:47:37;4.00;;;1.40;;
1545;SDS011;766;51.502;9.752;2023-04-25T13:50:08;7.43;;;1.75;;
1545;SDS011;766;51.502;9.752;2023-04-25T13:52:37;3.38;;;1.20;;
1545;SDS011;766;51.502;9.752;2023-04-25T13:55:05;5.50;;;1.30;;
1545;SDS011;766;51.502;9.752;2023-04-25T13:57:35;4.00;;;1.73;;
1545;SDS011;766;51.502;9.752;2023-04-25T14:00:07;4.47;;;1.30;;
1545;SDS011;766;51.502;9.752;2023-04-25T14:02:36;5.03;;;2.03;;
1545;SDS011;766;51.502;9.752;2023-04-25T14:05:05;4.38;;;1.40;;
1545;SDS011;766;51.502;9.752;2023-04-25T14:07:36;4.18;;;1.45;;
1545;SDS011;766;51.502;9.752;2023-04-25T14:10:05;4.20;;;1.60;;
1545;SDS011;766;51.502;9.752;2023-04-25T14:12:34;5.60;;;1.67;;
1545;SDS011;766;51.502;9.752;2023-04-25T14:15:03;5.38;;;2.10;;
1545;SDS011;766;51.502;9.752;2023-04-25T14:17:32;5.35;;;1.40;;
1545;SDS011;766;51.502;9.752;2023-04-25T14:20:00;8.07;;;1.52;;
1545;SDS011;766;51.502;9.752;2023-04-25T14:22:46;6.18;;;1.27;;
1545;SDS011;766;51.502;9.752;2023-04-25T14:25:14;4.78;;;1.63;;
1545;SDS011;766;51.502;9.752;2023-04-25T14:27:43;4.72;;;1.60;;
1545;SDS011;766;51.502;9.752;2023-04-25T14:30:16;2.42;;;1.20;;
1545;SDS011;766;51.502;9.752;2023-04-25T14:32:45;5.43;;;1.30;;
1545;SDS011;766;51.502;9.752;2023-04-25T14:35:14;5.60;;;1.20;;
1545;SDS011;766;51.502;9.752;2023-04-25T14:37:42;5.50;;;1.27;;
1545;SDS011;766;51.502;9.752;2023-04-25T14:40:12;3.80;;;1.50;;
1545;SDS011;766;51.502;9.752;2023-04-25T14:42:42;3.70;;;1.35;;
1545;SDS011;766;51.502;9.752;2023-04-25T14:45:11;4.40;;;1.45;;
1545;SDS011;766;51.502;9.752;2023-04-25T14:47:39;8.10;;;1.70;;
1545;SDS011;766;51.502;9.752;2023-04-25T14:50:08;4.97;;;1.63;;
1545;SDS011;766;51.502;9.752;2023-04-25T14:52:37;5.72;;;1.77;;
1545;SDS011;766;51.502;9.752;2023-04-25T14:55:07;5.28;;;1.60;;
1545;SDS011;766;51.502;9.752;2023-04-25T14:57:36;7.13;;;1.90;;
1545;SDS011;766;51.502;9.752;2023-04-25T15:00:06;4.20;;;1.55;;
1545;SDS011;766;51.502;9.752;2023-04-25T15:02:36;4.72;;;1.42;;
1545;SDS011;766;51.502;9.752;2023-04-25T15:05:05;7.78;;;1.73;;
1545;SDS011;766;51.502;9.752;2023-04-25T15:07:35;5.90;;;1.60;;
1545;SDS011;766;51.502;9.752;2023-04-25T15:10:03;3.80;;;1.23;;
1545;SDS011;766;51.502;9.752;2023-04-25T15:12:38;4.72;;;1.40;;
1545;SDS011;766;51.502;9.752;2023-04-25T15:15:07;7.03;;;1.83;;
1545;SDS011;766;51.502;9.752;2023-04-25T15:17:43;5.65;;;1.98;;
1545;SDS011;766;51.502;9.752;2023-04-25T15:20:12;5.50;;;1.52;;
1545;SDS011;766;51.502;9.752;2023-04-25T15:22:41;3.08;;;1.23;;
1545;SDS011;766;51.502;9.752;2023-04-25T15:25:11;4.88;;;2.00;;
1545;SDS011;766;51.502;9.752;2023-04-25T15:27:41;4.60;;;1.40;;
1545;SDS011;766;51.502;9.752;2023-04-25T15:30:12;6.72;;;1.90;;
1545;SDS011;766;51.502;9.752;2023-04-25T15:32:42;4.82;;;1.73;;
1545;SDS011;766;51.502;9.752;2023-04-25T15:35:11;4.15;;;1.40;;
1545;SDS011;766;51.502;9.752;2023-04-25T15:37:40;4.72;;;1.30;;
1545;SDS011;766;51.502;9.752;2023-04-25T15:40:09;5.10;;;1.58;;